createdAt,value
2023-04-02T00:00:30.623Z,8.07
2023-04-02T00:02:58.450Z,8.04
2023-04-02T00:05:30.339Z,8.00
2023-04-02T00:07:58.771Z,7.94
2023-04-02T00:10:26.785Z,7.91
2023-04-02T00:12:54.459Z,7.88
2023-04-02T00:15:22.557Z,7.86
2023-04-02T00:17:50.247Z,7.85
2023-04-02T00:20:18.021Z,7.84
2023-04-02T00:22:46.097Z,7.81
2023-04-02T00:25:13.769Z,7.79
2023-04-02T00:27:41.513Z,7.76
2023-04-02T00:30:09.167Z,7.75
2023-04-02T00:32:36.939Z,7.72
2023-04-02T00:35:04.990Z,7.72
2023-04-02T00:37:39.033Z,7.69
2023-04-02T00:40:07.510Z,7.65
2023-04-02T00:42:35.308Z,7.62
2023-04-02T00:45:03.021Z,7.59
2023-04-02T00:47:31.088Z,7.58
2023-04-02T00:49:58.820Z,7.56
2023-04-02T00:52:26.499Z,7.53
2023-04-02T00:54:54.076Z,7.49
2023-04-02T00:57:23.496Z,7.47
2023-04-02T00:59:52.009Z,7.43
2023-04-02T01:02:19.706Z,7.41
2023-04-02T01:04:47.482Z,7.38
2023-04-02T01:07:15.141Z,7.37
2023-04-02T01:09:43.103Z,7.34
2023-04-02T01:12:11.062Z,7.33
2023-04-02T01:14:38.722Z,7.30
2023-04-02T01:17:06.271Z,7.30
2023-04-02T01:19:33.990Z,7.29
2023-04-02T01:22:01.661Z,7.27
2023-04-02T01:24:29.634Z,7.24
2023-04-02T01:26:58.042Z,7.22
2023-04-02T01:29:25.838Z,7.20
2023-04-02T01:31:53.418Z,7.16
2023-04-02T01:34:20.994Z,7.17
2023-04-02T01:36:48.954Z,7.17
2023-04-02T01:39:16.612Z,7.18
2023-04-02T01:41:44.201Z,7.16
2023-04-02T01:44:12.258Z,7.15
2023-04-02T01:46:39.887Z,7.13
2023-04-02T01:49:08.394Z,7.09
2023-04-02T01:51:36.195Z,7.05
2023-04-02T01:54:03.824Z,7.01
2023-04-02T01:56:31.689Z,6.97
2023-04-02T01:58:59.322Z,6.95
2023-04-02T02:01:27.286Z,6.92
2023-04-02T02:03:54.903Z,6.92
2023-04-02T02:06:22.897Z,6.91
2023-04-02T02:08:50.518Z,6.91
2023-04-02T02:11:18.078Z,6.88
2023-04-02T02:13:47.041Z,6.86
2023-04-02T02:16:14.976Z,6.84
2023-04-02T02:18:42.624Z,6.82
2023-04-02T02:21:10.275Z,6.81
2023-04-02T02:23:37.870Z,6.80
2023-04-02T02:26:05.468Z,6.81
2023-04-02T02:28:34.523Z,6.81
2023-04-02T02:31:02.775Z,6.81
2023-04-02T02:33:30.420Z,6.80
2023-04-02T02:35:58.116Z,6.79
2023-04-02T02:38:26.145Z,6.77
2023-04-02T02:40:53.973Z,6.75
2023-04-02T02:43:21.642Z,6.72
2023-04-02T02:45:49.185Z,6.72
2023-04-02T02:48:16.758Z,6.70
2023-04-02T02:50:44.820Z,6.68
2023-04-02T02:53:12.467Z,6.68
2023-04-02T02:55:40.031Z,6.68
2023-04-02T02:58:09.074Z,6.67
2023-04-02T03:00:36.694Z,6.67
2023-04-02T03:03:05.052Z,6.66
2023-04-02T03:05:33.197Z,6.64
2023-04-02T03:08:01.454Z,6.63
2023-04-02T03:10:29.084Z,6.59
2023-04-02T03:12:57.260Z,6.57
2023-04-02T03:15:25.209Z,6.54
2023-04-02T03:17:53.007Z,6.52
2023-04-02T03:20:20.736Z,6.50
2023-04-02T03:22:48.425Z,6.47
2023-04-02T03:25:15.999Z,6.47
2023-04-02T03:27:43.866Z,6.45
2023-04-02T03:30:11.482Z,6.43
2023-04-02T03:32:39.069Z,6.45
2023-04-02T03:35:07.204Z,6.45
2023-04-02T03:37:34.793Z,6.43
2023-04-02T03:40:02.784Z,6.43
2023-04-02T03:42:30.511Z,6.41
2023-04-02T03:44:58.070Z,6.41
2023-04-02T03:47:25.678Z,6.40
2023-04-02T03:49:53.356Z,6.39
2023-04-02T03:52:21.282Z,6.38
2023-04-02T03:54:54.089Z,6.38
2023-04-02T03:57:22.593Z,6.38
2023-04-02T03:59:50.298Z,6.37
2023-04-02T04:02:17.955Z,6.37
2023-04-02T04:04:46.003Z,6.33
2023-04-02T04:07:13.694Z,6.28
2023-04-02T04:09:41.256Z,6.25
2023-04-02T04:12:08.869Z,6.22
2023-04-02T04:14:36.462Z,6.19
2023-04-02T04:17:04.954Z,6.16
2023-04-02T04:19:32.751Z,6.12
2023-04-02T04:22:00.356Z,6.09
2023-04-02T04:24:27.957Z,6.08
2023-04-02T04:26:55.594Z,6.05
2023-04-02T04:29:23.583Z,6.04
2023-04-02T04:31:55.339Z,6.01
2023-04-02T04:34:23.586Z,5.97
2023-04-02T04:36:55.061Z,5.94
2023-04-02T04:39:24.533Z,5.90
2023-04-02T04:41:52.170Z,5.86
2023-04-02T04:44:19.754Z,5.84
2023-04-02T04:46:47.398Z,5.81
2023-04-02T04:49:15.043Z,5.78
2023-04-02T04:51:42.999Z,5.77
2023-04-02T04:54:10.560Z,5.76
2023-04-02T04:56:38.231Z,5.73
2023-04-02T04:59:05.964Z,5.71
2023-04-02T05:01:34.033Z,5.71
2023-04-02T05:04:02.093Z,5.70
2023-04-02T05:06:29.810Z,5.69
2023-04-02T05:08:57.425Z,5.67
2023-04-02T05:11:25.608Z,5.64
2023-04-02T05:13:53.208Z,5.62
2023-04-02T05:16:21.188Z,5.60
2023-04-02T05:18:49.131Z,5.61
2023-04-02T05:21:16.823Z,5.59
2023-04-02T05:23:44.786Z,5.58
2023-04-02T05:26:12.400Z,5.57
2023-04-02T05:28:40.402Z,5.53
2023-04-02T05:31:08.310Z,5.51
2023-04-02T05:33:36.095Z,5.50
2023-04-02T05:36:03.819Z,5.49
2023-04-02T05:38:31.549Z,5.48
2023-04-02T05:40:59.661Z,5.48
2023-04-02T05:43:27.440Z,5.46
2023-04-02T05:45:55.484Z,5.46
2023-04-02T05:48:23.094Z,5.45
2023-04-02T05:50:51.287Z,5.41
2023-04-02T05:53:19.222Z,5.40
2023-04-02T05:55:47.047Z,5.40
2023-04-02T05:58:34.715Z,5.39
2023-04-02T06:01:02.679Z,5.40
2023-04-02T06:03:30.726Z,5.38
2023-04-02T06:06:00.017Z,5.35
2023-04-02T06:08:27.641Z,5.34
2023-04-02T06:10:55.505Z,5.33
2023-04-02T06:13:23.092Z,5.31
2023-04-02T06:15:50.731Z,5.30
2023-04-02T06:18:18.490Z,5.28
2023-04-02T06:20:46.254Z,5.27
2023-04-02T06:23:13.915Z,5.25
2023-04-02T06:25:41.570Z,5.24
2023-04-02T06:28:09.836Z,5.25
2023-04-02T06:30:37.525Z,5.24
2023-04-02T06:33:05.234Z,5.24
2023-04-02T06:35:32.900Z,5.24
2023-04-02T06:38:00.582Z,5.23
2023-04-02T06:40:28.612Z,5.23
2023-04-02T06:42:59.814Z,5.23
2023-04-02T06:45:27.526Z,5.22
2023-04-02T06:47:55.150Z,5.25
2023-04-02T06:50:23.396Z,5.24
2023-04-02T06:52:51.361Z,5.25
2023-04-02T06:55:19.200Z,5.25
2023-04-02T06:57:47.047Z,5.24
2023-04-02T07:00:15.003Z,5.24
2023-04-02T07:02:42.770Z,5.24
2023-04-02T07:05:11.444Z,5.23
2023-04-02T07:07:39.484Z,5.21
2023-04-02T07:10:09.404Z,5.22
2023-04-02T07:12:37.062Z,5.21
2023-04-02T07:15:04.866Z,5.22
2023-04-02T07:17:32.867Z,5.22
2023-04-02T07:20:00.762Z,5.25
2023-04-02T07:22:28.444Z,5.27
2023-04-02T07:24:56.230Z,5.26
2023-04-02T07:27:23.860Z,5.26
2023-04-02T07:29:51.980Z,5.26
2023-04-02T07:32:22.282Z,5.27
2023-04-02T07:34:50.447Z,5.29
2023-04-02T07:37:18.173Z,5.33
2023-04-02T07:39:45.989Z,5.35
2023-04-02T07:42:13.644Z,5.38
2023-04-02T07:44:41.624Z,5.38
2023-04-02T07:47:10.781Z,5.37
2023-04-02T07:49:38.438Z,5.41
2023-04-02T07:52:06.213Z,5.43
2023-04-02T07:54:34.748Z,5.41
2023-04-02T07:57:02.505Z,5.40
2023-04-02T07:59:30.229Z,5.43
2023-04-02T08:01:58.057Z,5.45
2023-04-02T08:04:25.857Z,5.47
2023-04-02T08:06:54.722Z,5.47
2023-04-02T08:09:22.746Z,5.48
2023-04-02T08:11:50.901Z,5.45
2023-04-02T08:14:18.687Z,5.46
2023-04-02T08:16:47.120Z,5.47
2023-04-02T08:19:15.205Z,5.48
2023-04-02T08:21:43.038Z,5.49
2023-04-02T08:24:10.730Z,5.51
2023-04-02T08:26:38.425Z,5.54
2023-04-02T08:29:06.133Z,5.56
2023-04-02T08:31:34.171Z,5.59
2023-04-02T08:34:02.232Z,5.59
2023-04-02T08:36:30.055Z,5.62
2023-04-02T08:38:58.234Z,5.65
2023-04-02T08:41:28.125Z,5.66
2023-04-02T08:43:56.403Z,5.68
2023-04-02T08:46:24.185Z,5.69
2023-04-02T08:48:51.919Z,5.67
2023-04-02T08:51:19.674Z,5.67
2023-04-02T08:53:47.348Z,5.73
2023-04-02T08:56:18.195Z,5.79
2023-04-02T08:58:45.887Z,5.84
2023-04-02T09:01:14.190Z,5.87
2023-04-02T09:03:42.845Z,5.92
2023-04-02T09:06:14.287Z,5.90
2023-04-02T09:08:43.492Z,5.90
2023-04-02T09:11:11.667Z,5.92
2023-04-02T09:13:39.579Z,5.95
2023-04-02T09:16:07.363Z,5.99
2023-04-02T09:18:35.200Z,6.01
2023-04-02T09:21:04.005Z,6.07
2023-04-02T09:23:33.637Z,6.13
2023-04-02T09:26:04.097Z,6.16
2023-04-02T09:28:32.632Z,6.18
2023-04-02T09:31:00.300Z,6.22
2023-04-02T09:33:28.365Z,6.27
2023-04-02T09:35:56.319Z,6.33
2023-04-02T09:38:24.200Z,6.30
2023-04-02T09:40:52.057Z,6.31
2023-04-02T09:43:19.778Z,6.31
2023-04-02T09:45:48.206Z,6.29
2023-04-02T09:48:15.898Z,6.34
2023-04-02T09:50:43.861Z,6.37
2023-04-02T09:53:11.645Z,6.37
2023-04-02T09:55:39.449Z,6.40
2023-04-02T09:58:07.744Z,6.44
2023-04-02T10:00:35.898Z,6.47
2023-04-02T10:03:04.466Z,6.48
2023-04-02T10:05:40.432Z,6.50
2023-04-02T10:08:09.544Z,6.50
2023-04-02T10:10:38.128Z,6.51
2023-04-02T10:13:06.084Z,6.54
2023-04-02T10:15:34.188Z,6.58
2023-04-02T10:18:02.453Z,6.61
2023-04-02T10:20:34.001Z,6.63
2023-04-02T10:23:06.385Z,6.65
2023-04-02T10:25:34.422Z,6.66
2023-04-02T10:28:02.886Z,6.63
2023-04-02T10:30:31.203Z,6.66
2023-04-02T10:32:59.177Z,6.69
2023-04-02T10:35:26.975Z,6.70
2023-04-02T10:37:54.947Z,6.75
2023-04-02T10:40:22.851Z,6.79
2023-04-02T10:42:51.001Z,6.81
2023-04-02T10:45:18.990Z,6.85
2023-04-02T10:47:47.186Z,6.88
2023-04-02T10:50:15.141Z,6.91
2023-04-02T10:52:43.042Z,6.92
2023-04-02T10:55:11.169Z,6.90
2023-04-02T10:57:39.276Z,6.91
2023-04-02T11:00:09.783Z,6.92
2023-04-02T11:02:37.802Z,6.97
2023-04-02T11:05:05.979Z,7.06
2023-04-02T11:07:34.763Z,7.13
2023-04-02T11:10:03.303Z,7.15
2023-04-02T11:12:31.156Z,7.13
2023-04-02T11:14:59.419Z,7.11
2023-04-02T11:17:27.143Z,7.10
2023-04-02T11:19:56.745Z,7.08
2023-04-02T11:22:24.624Z,7.04
2023-04-02T11:24:52.509Z,7.02
2023-04-02T11:27:20.305Z,7.04
2023-04-02T11:29:48.201Z,7.07
2023-04-02T11:32:16.830Z,7.09
2023-04-02T11:34:44.704Z,7.12
2023-04-02T11:37:12.791Z,7.16
2023-04-02T11:39:40.618Z,7.16
2023-04-02T11:42:08.454Z,7.17
2023-04-02T11:44:36.805Z,7.17
2023-04-02T11:47:04.624Z,7.19
2023-04-02T11:49:32.976Z,7.25
2023-04-02T11:52:11.394Z,7.30
2023-04-02T11:54:40.652Z,7.30
2023-04-02T11:57:08.481Z,7.27
2023-04-02T11:59:36.586Z,7.24
2023-04-02T12:02:04.444Z,7.22
2023-04-02T12:04:32.323Z,7.21
2023-04-02T12:07:00.501Z,7.21
2023-04-02T12:09:28.368Z,7.20
2023-04-02T12:11:56.308Z,7.17
2023-04-02T12:14:24.624Z,7.19
2023-04-02T12:16:53.607Z,7.19
2023-04-02T12:19:22.341Z,7.18
2023-04-02T12:21:50.149Z,7.17
2023-04-02T12:24:18.383Z,7.21
2023-04-02T12:26:46.908Z,7.25
2023-04-02T12:29:16.764Z,7.28
2023-04-02T12:31:45.017Z,7.29
2023-04-02T12:34:12.835Z,7.29
2023-04-02T12:36:43.187Z,7.26
2023-04-02T12:39:11.222Z,7.26
2023-04-02T12:41:39.114Z,7.25
2023-04-02T12:44:06.884Z,7.30
2023-04-02T12:46:34.859Z,7.34
2023-04-02T12:49:02.824Z,7.39
2023-04-02T12:51:30.825Z,7.42
2023-04-02T12:53:58.681Z,7.45
2023-04-02T12:56:27.320Z,7.48
2023-04-02T12:58:55.833Z,7.50
2023-04-02T13:01:24.870Z,7.54
2023-04-02T13:03:53.098Z,7.58
2023-04-02T13:06:21.022Z,7.66
2023-04-02T13:08:49.197Z,7.76
2023-04-02T13:11:17.291Z,7.88
2023-04-02T13:13:45.114Z,7.98
2023-04-02T13:16:13.019Z,8.05
2023-04-02T13:18:40.861Z,8.03
2023-04-02T13:21:08.706Z,8.07
2023-04-02T13:23:36.722Z,8.11
2023-04-02T13:26:04.916Z,8.17
2023-04-02T13:28:32.767Z,8.24
2023-04-02T13:31:00.662Z,8.31
2023-04-02T13:33:29.240Z,8.36
2023-04-02T13:35:57.124Z,8.42
2023-04-02T13:38:25.226Z,8.46
2023-04-02T13:40:53.107Z,8.53
2023-04-02T13:43:21.332Z,8.61
2023-04-02T13:45:49.744Z,8.68
2023-04-02T13:48:18.676Z,8.80
2023-04-02T13:50:47.267Z,8.94
2023-04-02T13:53:15.126Z,8.94
2023-04-02T13:55:43.084Z,8.83
2023-04-02T13:58:11.985Z,9.00
2023-04-02T14:00:39.858Z,9.35
2023-04-02T14:03:07.868Z,9.45
2023-04-02T14:05:37.046Z,9.45
2023-04-02T14:08:05.081Z,9.37
2023-04-02T14:10:33.201Z,9.35
2023-04-02T14:13:01.022Z,9.29
2023-04-02T14:15:29.161Z,9.23
2023-04-02T14:17:57.180Z,9.15
2023-04-02T14:20:25.021Z,9.09
2023-04-02T14:22:53.483Z,9.12
2023-04-02T14:25:21.318Z,9.14
2023-04-02T14:27:49.232Z,9.19
2023-04-02T14:30:17.096Z,9.24
2023-04-02T14:32:44.996Z,9.27
2023-04-02T14:35:12.952Z,9.25
2023-04-02T14:37:40.721Z,9.19
2023-04-02T14:40:09.267Z,9.14
2023-04-02T14:42:37.199Z,9.13
2023-04-02T14:45:05.153Z,9.19
2023-04-02T14:47:33.866Z,9.23
2023-04-02T14:50:01.782Z,9.23
2023-04-02T14:52:29.653Z,9.24
2023-04-02T14:54:57.973Z,9.22
2023-04-02T14:57:26.710Z,9.23
2023-04-02T14:59:54.952Z,9.57
2023-04-02T15:02:23.086Z,10.12
2023-04-02T15:04:51.092Z,10.63
2023-04-02T15:07:19.201Z,10.87
2023-04-02T15:09:47.725Z,10.57
2023-04-02T15:12:15.909Z,10.52
2023-04-02T15:14:43.942Z,10.50
2023-04-02T15:17:12.020Z,10.52
2023-04-02T15:19:39.958Z,10.56
2023-04-02T15:22:09.472Z,10.53
2023-04-02T15:24:38.153Z,10.23
2023-04-02T15:27:14.727Z,10.06
2023-04-02T15:29:52.067Z,10.55
2023-04-02T15:32:20.018Z,11.32
2023-04-02T15:34:50.444Z,11.76
2023-04-02T15:37:18.372Z,11.57
2023-04-02T15:39:46.386Z,11.12
2023-04-02T15:42:15.173Z,10.64
2023-04-02T15:44:43.147Z,10.21
2023-04-02T15:47:11.574Z,9.79
2023-04-02T15:49:39.455Z,9.50
2023-04-02T15:52:07.433Z,9.29
2023-04-02T15:54:35.214Z,9.15
2023-04-02T15:57:03.121Z,8.99
2023-04-02T15:59:31.338Z,8.86
2023-04-02T16:01:59.258Z,8.78
2023-04-02T16:04:27.136Z,8.69
2023-04-02T16:06:55.524Z,8.62
2023-04-02T16:09:23.427Z,8.58
2023-04-02T16:11:51.869Z,8.52
2023-04-02T16:14:20.210Z,8.44
2023-04-02T16:16:48.148Z,8.41
2023-04-02T16:19:17.176Z,8.38
2023-04-02T16:21:45.297Z,8.33
2023-04-02T16:24:13.639Z,8.29
2023-04-02T16:26:41.566Z,8.24
2023-04-02T16:29:09.689Z,8.21
2023-04-02T16:31:37.637Z,8.15
2023-04-02T16:34:05.521Z,8.12
2023-04-02T16:36:34.066Z,8.08
2023-04-02T16:39:02.016Z,8.03
2023-04-02T16:41:30.028Z,7.97
2023-04-02T16:43:57.994Z,7.94
2023-04-02T16:46:38.327Z,7.90
2023-04-02T16:49:08.478Z,7.88
2023-04-02T16:51:36.274Z,7.87
2023-04-02T16:54:04.365Z,7.87
2023-04-02T16:56:32.231Z,7.87
2023-04-02T16:59:00.113Z,7.85
2023-04-02T17:01:28.696Z,7.81
2023-04-02T17:03:57.067Z,7.75
2023-04-02T17:06:25.076Z,7.68
2023-04-02T17:08:52.919Z,7.63
2023-04-02T17:11:21.656Z,7.52
2023-04-02T17:13:49.781Z,7.40
2023-04-02T17:16:18.625Z,7.31
2023-04-02T17:18:46.659Z,7.22
2023-04-02T17:21:14.399Z,7.13
2023-04-02T17:23:53.210Z,7.07
2023-04-02T17:26:25.049Z,7.01
2023-04-02T17:28:53.333Z,6.94
2023-04-02T17:31:21.406Z,6.85
2023-04-02T17:33:49.384Z,6.75
2023-04-02T17:36:17.267Z,6.66
2023-04-02T17:38:45.856Z,6.57
2023-04-02T17:41:13.736Z,6.50
2023-04-02T17:43:43.276Z,6.43
2023-04-02T17:46:11.178Z,6.36
2023-04-02T17:48:39.168Z,6.28
2023-04-02T17:51:07.588Z,6.21
2023-04-02T17:53:35.457Z,6.12
2023-04-02T17:56:03.412Z,6.04
2023-04-02T17:58:31.509Z,5.95
2023-04-02T18:00:59.898Z,5.90
2023-04-02T18:03:30.051Z,5.82
2023-04-02T18:05:58.749Z,5.77
2023-04-02T18:08:26.560Z,5.70
2023-04-02T18:10:54.469Z,5.65
2023-04-02T18:13:22.329Z,5.59
2023-04-02T18:15:50.492Z,5.56
2023-04-02T18:18:18.644Z,5.56
2023-04-02T18:20:46.577Z,5.57
2023-04-02T18:23:14.561Z,5.59
2023-04-02T18:25:43.205Z,5.61
2023-04-02T18:28:11.606Z,5.63
2023-04-02T18:30:40.014Z,5.63
2023-04-02T18:33:08.432Z,5.64
2023-04-02T18:35:36.305Z,5.64
2023-04-02T18:38:04.176Z,5.62
2023-04-02T18:40:32.811Z,5.58
2023-04-02T18:43:01.027Z,5.50
2023-04-02T18:45:29.279Z,5.44
2023-04-02T18:47:57.250Z,5.36
2023-04-02T18:50:25.305Z,5.30
2023-04-02T18:52:53.706Z,5.22
2023-04-02T18:55:22.127Z,5.15
2023-04-02T18:57:49.923Z,5.09
2023-04-02T19:00:17.963Z,5.02
2023-04-02T19:02:46.035Z,4.95
2023-04-02T19:05:14.156Z,4.85
2023-04-02T19:07:42.998Z,4.77
2023-04-02T19:10:11.026Z,4.67
2023-04-02T19:12:39.044Z,4.58
2023-04-02T19:15:07.280Z,4.51
2023-04-02T19:17:35.881Z,4.45
2023-04-02T19:20:04.121Z,4.39
2023-04-02T19:22:33.740Z,4.35
2023-04-02T19:25:01.617Z,4.30
2023-04-02T19:27:29.618Z,4.24
2023-04-02T19:29:57.920Z,4.17
2023-04-02T19:32:25.770Z,4.11
2023-04-02T19:34:53.618Z,4.06
2023-04-02T19:37:22.265Z,3.99
2023-04-02T19:39:50.419Z,3.95
2023-04-02T19:42:18.805Z,3.91
2023-04-02T19:44:47.061Z,3.86
2023-04-02T19:47:15.101Z,3.80
2023-04-02T19:49:42.964Z,3.74
2023-04-02T19:52:10.869Z,3.70
2023-04-02T19:54:39.514Z,3.65
2023-04-02T19:57:07.674Z,3.58
2023-04-02T19:59:35.864Z,3.49
2023-04-02T20:02:06.921Z,3.41
2023-04-02T20:04:34.854Z,3.35
2023-04-02T20:07:03.375Z,3.28
2023-04-02T20:09:31.259Z,3.23
2023-04-02T20:11:59.311Z,3.19
2023-04-02T20:14:27.633Z,3.12
2023-04-02T20:16:55.573Z,3.07
2023-04-02T20:19:24.017Z,3.03
2023-04-02T20:21:52.168Z,2.98
2023-04-02T20:24:20.078Z,2.91
2023-04-02T20:26:47.856Z,2.85
2023-04-02T20:29:15.883Z,2.79
2023-04-02T20:31:43.803Z,2.73
2023-04-02T20:34:12.375Z,2.68
2023-04-02T20:36:41.379Z,2.67
2023-04-02T20:39:11.027Z,2.62
2023-04-02T20:41:38.975Z,2.60
2023-04-02T20:44:06.704Z,2.55
2023-04-02T20:46:35.017Z,2.50
2023-04-02T20:49:03.378Z,2.46
2023-04-02T20:51:31.172Z,2.43
2023-04-02T20:53:59.057Z,2.40
2023-04-02T20:56:27.722Z,2.37
2023-04-02T20:58:56.962Z,2.35
2023-04-02T21:01:24.949Z,2.32
2023-04-02T21:03:52.952Z,2.28
2023-04-02T21:06:21.314Z,2.26
2023-04-02T21:08:49.296Z,2.21
2023-04-02T21:11:17.073Z,2.16
2023-04-02T21:13:45.041Z,2.14
2023-04-02T21:16:12.936Z,2.08
2023-04-02T21:18:40.898Z,2.04
2023-04-02T21:21:09.067Z,2.00
2023-04-02T21:23:36.980Z,1.95
2023-04-02T21:26:06.255Z,1.90
2023-04-02T21:28:34.159Z,1.85
2023-04-02T21:31:02.053Z,1.81
2023-04-02T21:33:29.981Z,1.76
2023-04-02T21:35:58.164Z,1.72
2023-04-02T21:38:26.198Z,1.67
2023-04-02T21:40:53.979Z,1.64
2023-04-02T21:43:22.365Z,1.60
2023-04-02T21:45:50.718Z,1.56
2023-04-02T21:48:18.737Z,1.50
2023-04-02T21:50:46.923Z,1.44
2023-04-02T21:53:14.851Z,1.39
2023-04-02T21:55:42.651Z,1.37
2023-04-02T21:58:10.722Z,1.36
2023-04-02T22:00:39.290Z,1.36
2023-04-02T22:03:07.887Z,1.33
2023-04-02T22:05:37.390Z,1.30
2023-04-02T22:08:05.479Z,1.27
2023-04-02T22:10:33.715Z,1.26
2023-04-02T22:13:01.848Z,1.23
2023-04-02T22:15:29.628Z,1.21
2023-04-02T22:17:57.333Z,1.21
2023-04-02T22:20:25.129Z,1.20
2023-04-02T22:22:53.269Z,1.19
2023-04-02T22:25:20.999Z,1.17
2023-04-02T22:27:52.054Z,1.15
2023-04-02T22:30:19.799Z,1.13
2023-04-02T22:32:47.441Z,1.10
2023-04-02T22:35:15.477Z,1.07
2023-04-02T22:37:43.211Z,1.04
2023-04-02T22:40:10.947Z,1.03
2023-04-02T22:42:38.609Z,1.02
2023-04-02T22:45:08.065Z,0.99
2023-04-02T22:47:36.632Z,0.96
2023-04-02T22:50:04.715Z,0.95
2023-04-02T22:52:32.401Z,0.94
2023-04-02T22:55:00.151Z,0.92
2023-04-02T22:57:27.956Z,0.91
2023-04-02T22:59:56.007Z,0.89
2023-04-02T23:02:23.885Z,0.86
2023-04-02T23:04:51.519Z,0.84
2023-04-02T23:07:19.216Z,0.78
2023-04-02T23:09:47.501Z,0.75
2023-04-02T23:12:15.589Z,0.70
2023-04-02T23:14:43.477Z,0.66
2023-04-02T23:17:11.176Z,0.62
2023-04-02T23:19:38.881Z,0.62
2023-04-02T23:22:06.538Z,0.59
2023-04-02T23:24:34.201Z,0.59
2023-04-02T23:27:01.875Z,0.58
2023-04-02T23:29:29.530Z,0.58
2023-04-02T23:31:57.486Z,0.56
2023-04-02T23:34:25.094Z,0.54
2023-04-02T23:36:53.094Z,0.52
2023-04-02T23:39:22.357Z,0.49
2023-04-02T23:41:49.990Z,0.48
2023-04-02T23:44:17.626Z,0.46
2023-04-02T23:46:45.251Z,0.45
2023-04-02T23:49:13.461Z,0.44
2023-04-02T23:51:41.616Z,0.46
2023-04-02T23:54:09.598Z,0.48
2023-04-02T23:56:37.139Z,0.50
2023-04-02T23:59:04.801Z,0.53
